Homer, Nebraska
Current Conditions -  °F | °C
As of 7:52 PM on Saturday 20 Dec 2014 (Local Time) from KSUX Reporting Station
Haze Haze  
Wind Chill: 23°   Ceiling: 400
Heat Index: 33°   Visibility: 4mi
Dew Point: 31°   Wind: 15mph
Humidity: 92%   Direction: 170°S
Pressure: 30.04"   Gusts: NA
Location:  42.32°N, 96.49°W
Report Text: KSUX 210152Z 17013KT 4SM BR OVC004 01/M01 A3004 RMK AO2 SLP185 T00061006
Loading
Personal Weather Stations






























Interactive Weather Map New forecast layout! Learn more

10-Day Weather Forecast

Advertisements
Track Severe Weather on mobile